createdAt,value
2023-03-26T00:01:38.010Z,74.87
2023-03-26T00:04:07.048Z,75.46
2023-03-26T00:06:38.771Z,75.31
2023-03-26T00:09:08.660Z,75.77
2023-03-26T00:11:35.245Z,74.54
2023-03-26T00:14:02.622Z,76.59
2023-03-26T00:16:31.530Z,76.81
2023-03-26T00:18:58.667Z,75.68
2023-03-26T00:21:28.013Z,76.74
2023-03-26T00:24:00.909Z,76.28
2023-03-26T00:26:29.288Z,76.83
2023-03-26T00:28:55.707Z,76.75
2023-03-26T00:31:22.081Z,76.19
2023-03-26T00:33:54.154Z,76.43
2023-03-26T00:36:20.624Z,76.18
2023-03-26T00:38:47.905Z,76.83
2023-03-26T00:41:24.792Z,77.36
2023-03-26T00:43:57.105Z,76.69
2023-03-26T00:46:25.403Z,76.92
2023-03-26T00:48:51.954Z,77.22
2023-03-26T00:51:20.613Z,77.32
2023-03-26T00:53:48.817Z,77.41
2023-03-26T00:56:15.212Z,77.59
2023-03-26T00:58:42.023Z,77.47
2023-03-26T01:01:14.648Z,76.85
2023-03-26T01:03:53.226Z,76.44
2023-03-26T01:06:36.484Z,76.52
2023-03-26T01:09:18.640Z,76.68
2023-03-26T01:11:47.713Z,76.60
2023-03-26T01:14:18.342Z,76.82
2023-03-26T01:16:51.929Z,76.77
2023-03-26T01:19:57.071Z,77.35
2023-03-26T01:22:26.677Z,77.23
2023-03-26T01:24:56.070Z,77.41
2023-03-26T01:27:38.751Z,77.63
2023-03-26T01:30:11.036Z,77.34
2023-03-26T01:32:58.092Z,78.18
2023-03-26T01:35:48.784Z,78.38
2023-03-26T01:38:31.491Z,78.21
2023-03-26T01:41:10.717Z,77.77
2023-03-26T01:43:49.501Z,77.37
2023-03-26T01:46:17.663Z,77.43
2023-03-26T01:48:46.498Z,77.78
2023-03-26T01:51:15.017Z,77.57
2023-03-26T01:53:44.891Z,77.49
2023-03-26T01:56:19.820Z,77.38
2023-03-26T01:59:23.015Z,76.67
2023-03-26T02:02:07.065Z,76.75
2023-03-26T02:04:42.073Z,76.85
2023-03-26T02:07:17.776Z,76.86
2023-03-26T02:09:55.856Z,76.43
2023-03-26T02:12:23.704Z,76.32
2023-03-26T02:14:50.537Z,75.94
2023-03-26T02:17:19.002Z,75.76
2023-03-26T02:19:45.402Z,75.85
2023-03-26T02:22:15.563Z,75.71
2023-03-26T02:24:43.390Z,75.32
2023-03-26T02:27:12.181Z,75.46
2023-03-26T02:29:39.920Z,75.25
2023-03-26T02:32:07.659Z,75.15
2023-03-26T02:34:34.104Z,75.22
2023-03-26T02:37:02.988Z,75.26
2023-03-26T02:39:29.394Z,75.27
2023-03-26T02:41:55.714Z,75.23
2023-03-26T02:44:22.092Z,75.25
2023-03-26T02:46:48.446Z,75.05
2023-03-26T02:49:14.814Z,74.88
2023-03-26T02:51:41.267Z,74.75
2023-03-26T02:54:07.633Z,74.66
2023-03-26T02:56:34.047Z,74.90
2023-03-26T02:59:00.691Z,74.65
2023-03-26T03:01:30.712Z,74.95
2023-03-26T03:03:57.557Z,75.84
2023-03-26T03:06:26.347Z,75.88
2023-03-26T03:08:53.932Z,76.30
2023-03-26T03:11:22.147Z,76.38
2023-03-26T03:13:49.033Z,77.16
2023-03-26T03:16:15.683Z,77.41
2023-03-26T03:18:42.125Z,77.93
2023-03-26T03:21:08.552Z,78.03
2023-03-26T03:23:34.989Z,78.78
2023-03-26T03:26:02.471Z,79.32
2023-03-26T03:28:29.128Z,79.46
2023-03-26T03:30:57.493Z,79.79
2023-03-26T03:33:24.405Z,80.00
2023-03-26T03:35:50.804Z,80.80
2023-03-26T03:38:17.725Z,81.13
2023-03-26T03:40:44.747Z,81.74
2023-03-26T03:43:11.323Z,83.11
2023-03-26T03:45:37.730Z,83.88
2023-03-26T03:48:04.398Z,83.79
2023-03-26T03:50:33.031Z,83.97
2023-03-26T03:53:01.017Z,84.16
2023-03-26T03:55:27.639Z,83.93
2023-03-26T03:57:54.608Z,83.97
2023-03-26T04:00:22.554Z,84.09
2023-03-26T04:02:49.012Z,83.98
2023-03-26T04:05:15.575Z,83.96
2023-03-26T04:07:42.072Z,84.63
2023-03-26T04:10:09.441Z,84.16
2023-03-26T04:12:35.853Z,83.97
2023-03-26T04:15:02.313Z,84.24
2023-03-26T04:17:30.484Z,84.30
2023-03-26T04:19:57.310Z,84.11
2023-03-26T04:22:26.106Z,84.02
2023-03-26T04:24:54.246Z,83.81
2023-03-26T04:27:27.171Z,83.97
2023-03-26T04:29:53.849Z,84.07
2023-03-26T04:32:29.588Z,83.94
2023-03-26T04:35:00.177Z,84.20
2023-03-26T04:37:35.392Z,84.02
2023-03-26T04:40:10.764Z,83.97
2023-03-26T04:42:41.568Z,84.36
2023-03-26T04:45:09.096Z,84.21
2023-03-26T04:47:37.088Z,84.29
2023-03-26T04:50:08.485Z,83.89
2023-03-26T04:52:35.576Z,83.73
2023-03-26T04:55:02.832Z,83.68
2023-03-26T04:57:35.849Z,83.35
2023-03-26T05:00:08.966Z,83.84
2023-03-26T05:02:37.476Z,83.77
2023-03-26T05:05:04.232Z,83.42
2023-03-26T05:07:30.662Z,83.18
2023-03-26T05:09:57.449Z,83.46
2023-03-26T05:12:23.939Z,82.75
2023-03-26T05:14:50.321Z,82.49
2023-03-26T05:17:18.762Z,82.68
2023-03-26T05:19:46.602Z,82.01
2023-03-26T05:22:13.173Z,82.47
2023-03-26T05:24:39.561Z,82.35
2023-03-26T05:27:06.330Z,82.59
2023-03-26T05:29:32.718Z,82.28
2023-03-26T05:31:59.025Z,82.28
2023-03-26T05:34:26.963Z,82.53
2023-03-26T05:36:53.604Z,82.11
2023-03-26T05:39:25.531Z,82.35
2023-03-26T05:41:52.864Z,82.23
2023-03-26T05:44:19.570Z,82.34
2023-03-26T05:46:46.233Z,81.99
2023-03-26T05:49:12.599Z,82.30
2023-03-26T05:51:39.036Z,82.04
2023-03-26T05:54:05.523Z,82.88
2023-03-26T05:56:31.907Z,83.27
2023-03-26T05:58:58.323Z,84.44
2023-03-26T06:01:25.448Z,84.56
2023-03-26T06:03:52.275Z,85.15
2023-03-26T06:06:20.506Z,85.33
2023-03-26T06:09:00.906Z,85.32
2023-03-26T06:11:28.800Z,85.95
2023-03-26T06:13:55.195Z,86.35
2023-03-26T06:16:27.103Z,87.00
2023-03-26T06:18:56.271Z,87.45
2023-03-26T06:21:25.068Z,87.85
2023-03-26T06:23:51.718Z,88.18
2023-03-26T06:26:18.414Z,88.85
2023-03-26T06:28:44.769Z,88.67
2023-03-26T06:31:11.811Z,88.92
2023-03-26T06:33:38.297Z,88.65
2023-03-26T06:36:05.309Z,88.77
2023-03-26T06:38:31.747Z,88.77
2023-03-26T06:41:07.398Z,88.73
2023-03-26T06:43:36.150Z,89.03
2023-03-26T06:46:03.682Z,88.56
2023-03-26T06:48:30.537Z,89.01
2023-03-26T06:50:59.795Z,88.42
2023-03-26T06:53:26.310Z,88.86
2023-03-26T06:55:54.369Z,88.62
2023-03-26T06:58:22.308Z,88.72
2023-03-26T07:00:49.886Z,89.08
2023-03-26T07:03:17.288Z,89.42
2023-03-26T07:05:43.851Z,89.26
2023-03-26T07:08:10.462Z,89.23
2023-03-26T07:10:38.112Z,89.65
2023-03-26T07:13:04.648Z,90.10
2023-03-26T07:15:31.116Z,90.25
2023-03-26T07:17:57.507Z,90.30
2023-03-26T07:20:24.366Z,90.75
2023-03-26T07:22:52.378Z,91.15
2023-03-26T07:25:19.235Z,91.15
2023-03-26T07:27:54.931Z,91.25
2023-03-26T07:30:32.186Z,91.72
2023-03-26T07:33:06.706Z,91.94
2023-03-26T07:35:55.152Z,91.59
2023-03-26T07:38:50.508Z,91.52
2023-03-26T07:41:43.561Z,92.31
2023-03-26T07:44:35.665Z,92.51
2023-03-26T07:47:10.789Z,92.53
2023-03-26T07:49:37.624Z,92.62
2023-03-26T07:52:05.147Z,92.63
2023-03-26T07:54:31.810Z,93.15
2023-03-26T07:57:04.422Z,93.32
2023-03-26T07:59:44.678Z,93.49
2023-03-26T08:02:21.291Z,93.61
2023-03-26T08:04:57.578Z,94.14
2023-03-26T08:07:29.724Z,94.26
2023-03-26T08:10:26.092Z,94.21
2023-03-26T08:13:04.593Z,94.40
2023-03-26T08:16:05.653Z,94.13
2023-03-26T08:18:59.417Z,94.51
2023-03-26T08:21:34.720Z,94.51
2023-03-26T08:24:13.984Z,94.86
2023-03-26T08:26:45.953Z,94.94
2023-03-26T08:29:32.747Z,94.69
2023-03-26T08:32:00.207Z,95.13
2023-03-26T08:34:26.632Z,95.32
2023-03-26T08:36:52.985Z,95.70
2023-03-26T08:39:22.159Z,95.36
2023-03-26T08:42:00.725Z,95.37
2023-03-26T08:44:49.065Z,95.47
2023-03-26T08:48:01.688Z,95.44
2023-03-26T08:51:04.060Z,95.90
2023-03-26T08:54:00.570Z,95.41
2023-03-26T08:56:39.313Z,96.09
2023-03-26T08:59:43.521Z,96.17
2023-03-26T09:02:52.110Z,96.15
2023-03-26T09:05:44.129Z,95.47
2023-03-26T09:08:22.608Z,95.08
2023-03-26T09:11:10.549Z,94.41
2023-03-26T09:13:52.644Z,94.35
2023-03-26T09:16:33.930Z,94.27
2023-03-26T09:19:20.825Z,94.00
2023-03-26T09:22:17.008Z,94.05
2023-03-26T09:25:10.368Z,94.12
2023-03-26T09:28:39.250Z,94.31
2023-03-26T09:31:27.557Z,94.43
2023-03-26T09:34:15.449Z,94.13
2023-03-26T09:36:47.728Z,94.19
2023-03-26T09:39:40.058Z,94.07
2023-03-26T09:42:11.561Z,94.36
2023-03-26T09:45:15.869Z,94.45
2023-03-26T09:48:05.442Z,94.69
2023-03-26T09:50:56.169Z,94.59
2023-03-26T09:53:48.893Z,94.91
2023-03-26T09:56:38.362Z,94.08
2023-03-26T09:59:36.268Z,93.59
2023-03-26T10:02:14.764Z,93.18
2023-03-26T10:05:05.015Z,93.00
2023-03-26T10:07:50.339Z,92.69
2023-03-26T10:10:50.795Z,92.29
2023-03-26T10:13:50.954Z,92.38
2023-03-26T10:16:31.313Z,92.40
2023-03-26T10:19:35.299Z,93.36
2023-03-26T10:22:42.440Z,92.96
2023-03-26T10:25:28.922Z,94.12
2023-03-26T10:28:34.502Z,94.03
2023-03-26T10:31:16.798Z,93.38
2023-03-26T10:34:11.077Z,93.83
2023-03-26T10:37:25.045Z,92.99
2023-03-26T10:40:10.230Z,93.30
2023-03-26T10:42:55.693Z,92.24
2023-03-26T10:45:38.857Z,92.77
2023-03-26T10:48:35.816Z,91.50
2023-03-26T10:51:12.834Z,91.82
2023-03-26T10:53:47.701Z,91.07
2023-03-26T10:56:42.449Z,90.87
2023-03-26T10:59:12.932Z,90.13
2023-03-26T11:01:46.629Z,90.13
2023-03-26T11:04:26.260Z,89.33
2023-03-26T11:07:06.574Z,89.64
2023-03-26T11:09:52.012Z,89.12
2023-03-26T11:12:36.685Z,89.24
2023-03-26T11:15:06.278Z,89.84
2023-03-26T11:17:41.628Z,89.65
2023-03-26T11:20:18.458Z,89.94
2023-03-26T11:23:01.785Z,89.82
2023-03-26T11:25:46.536Z,89.23
2023-03-26T11:29:04.035Z,89.08
2023-03-26T11:31:59.291Z,89.33
2023-03-26T11:34:34.698Z,88.12
2023-03-26T11:37:05.130Z,88.58
2023-03-26T11:39:51.121Z,89.00
2023-03-26T11:42:21.679Z,88.20
2023-03-26T11:44:57.269Z,88.33
2023-03-26T11:47:40.409Z,88.11
2023-03-26T11:50:18.543Z,89.63
2023-03-26T11:52:46.896Z,89.17
2023-03-26T11:55:13.996Z,89.64
2023-03-26T11:57:47.846Z,88.92
2023-03-26T12:00:20.863Z,89.04
2023-03-26T12:02:48.689Z,89.04
2023-03-26T12:05:26.387Z,87.55
2023-03-26T12:07:53.990Z,87.66
2023-03-26T12:10:24.506Z,87.73
2023-03-26T12:12:54.507Z,86.92
2023-03-26T12:15:21.892Z,87.34
2023-03-26T12:17:56.101Z,86.90
2023-03-26T12:20:25.449Z,86.75
2023-03-26T12:22:59.716Z,86.89
2023-03-26T12:25:27.870Z,87.26
2023-03-26T12:28:02.747Z,87.95
2023-03-26T12:31:12.251Z,88.07
2023-03-26T12:33:41.871Z,87.67
2023-03-26T12:36:44.175Z,88.73
2023-03-26T12:44:53.291Z,87.01
2023-03-26T12:49:53.054Z,87.40
2023-03-26T12:52:43.747Z,87.66
2023-03-26T12:55:23.652Z,88.64
2023-03-26T12:58:28.808Z,89.06
2023-03-26T13:01:15.729Z,87.85
2023-03-26T13:03:57.172Z,88.04
2023-03-26T13:10:10.737Z,87.82
2023-03-26T13:12:51.321Z,87.48
2023-03-26T13:15:55.171Z,86.50
2023-03-26T13:18:36.382Z,84.82
2023-03-26T13:21:33.374Z,86.74
2023-03-26T13:24:28.541Z,85.38
2023-03-26T13:27:19.193Z,86.04
2023-03-26T13:30:09.578Z,85.50
2023-03-26T13:33:01.115Z,83.57
2023-03-26T13:35:38.966Z,84.33
2023-03-26T13:38:14.199Z,83.76
2023-03-26T13:41:21.993Z,85.56
2023-03-26T13:44:00.946Z,84.22
2023-03-26T13:46:47.241Z,83.79
2023-03-26T13:49:24.762Z,83.63
2023-03-26T13:52:02.475Z,83.00
2023-03-26T13:58:02.174Z,82.29
2023-03-26T14:00:47.850Z,82.55
2023-03-26T14:04:08.761Z,81.69
2023-03-26T14:07:15.880Z,82.49
2023-03-26T14:09:48.307Z,82.35
2023-03-26T14:12:32.077Z,81.30
2023-03-26T14:15:07.003Z,80.58
2023-03-26T14:17:58.698Z,80.39
2023-03-26T14:20:47.585Z,79.31
2023-03-26T14:23:16.920Z,80.75
2023-03-26T14:26:02.806Z,81.45
2023-03-26T14:29:07.579Z,80.47
2023-03-26T14:31:52.626Z,80.84
2023-03-26T14:34:38.376Z,80.34
2023-03-26T14:37:29.656Z,79.28
2023-03-26T14:40:28.015Z,79.52
2023-03-26T14:43:04.252Z,79.89
2023-03-26T14:45:59.483Z,78.99
2023-03-26T14:49:27.847Z,78.52
2023-03-26T14:52:13.791Z,77.02
2023-03-26T14:54:55.989Z,76.63
2023-03-26T14:57:46.415Z,74.97
2023-03-26T15:00:42.611Z,75.39
2023-03-26T15:03:09.168Z,75.53
2023-03-26T15:06:15.948Z,76.95
2023-03-26T15:09:13.718Z,76.50
2023-03-26T15:11:45.827Z,75.98
2023-03-26T15:14:43.658Z,75.77
2023-03-26T15:17:28.826Z,76.76
2023-03-26T15:20:19.963Z,78.82
2023-03-26T15:22:59.629Z,79.19
2023-03-26T15:25:45.341Z,80.90
2023-03-26T15:28:31.782Z,83.14
2023-03-26T15:31:06.511Z,83.23
2023-03-26T15:34:04.105Z,83.49
2023-03-26T15:37:12.624Z,83.46
2023-03-26T15:40:10.001Z,85.41
2023-03-26T15:42:54.814Z,85.23
2023-03-26T15:45:56.466Z,85.67
2023-03-26T15:48:34.777Z,86.92
2023-03-26T15:51:28.640Z,87.72
2023-03-26T15:54:16.490Z,89.24
2023-03-26T15:56:42.911Z,88.54
2023-03-26T15:59:41.853Z,88.76
2023-03-26T16:02:36.337Z,89.33
2023-03-26T16:05:30.957Z,88.64
2023-03-26T16:08:04.288Z,87.67
2023-03-26T16:10:47.068Z,87.69
2023-03-26T16:13:19.603Z,88.69
2023-03-26T16:16:06.733Z,88.99
2023-03-26T16:18:35.814Z,88.03
2023-03-26T16:21:32.048Z,88.66
2023-03-26T16:24:02.268Z,88.38
2023-03-26T16:26:31.405Z,89.74
2023-03-26T16:29:16.518Z,89.63
2023-03-26T16:32:07.596Z,90.56
2023-03-26T16:34:57.932Z,90.45
2023-03-26T16:37:35.838Z,90.88
2023-03-26T16:40:32.653Z,91.65
2023-03-26T16:43:20.518Z,92.55
2023-03-26T16:46:00.510Z,92.51
2023-03-26T16:49:04.603Z,91.91
2023-03-26T16:52:02.384Z,92.53
2023-03-26T16:54:36.027Z,92.31
2023-03-26T16:57:25.958Z,91.82
2023-03-26T17:00:13.358Z,92.49
2023-03-26T17:02:59.879Z,92.62
2023-03-26T17:05:37.485Z,91.80
2023-03-26T17:08:11.552Z,91.30
2023-03-26T17:11:03.467Z,92.30
2023-03-26T17:14:03.769Z,90.96
2023-03-26T17:16:41.167Z,92.02
2023-03-26T17:19:38.731Z,91.21
2023-03-26T17:22:22.016Z,91.16
2023-03-26T17:25:04.808Z,90.76
2023-03-26T17:27:46.880Z,91.29
2023-03-26T17:30:49.246Z,92.12
2023-03-26T17:33:36.823Z,90.85
2023-03-26T17:36:12.601Z,90.22
2023-03-26T17:38:39.082Z,88.81
2023-03-26T17:41:11.872Z,88.39
2023-03-26T17:43:38.554Z,87.75
2023-03-26T17:46:25.309Z,87.08
2023-03-26T17:49:13.839Z,86.07
2023-03-26T17:51:44.632Z,86.13
2023-03-26T17:54:24.048Z,84.37
2023-03-26T17:56:53.060Z,83.29
2023-03-26T17:59:25.096Z,82.51
2023-03-26T18:01:56.080Z,81.82
2023-03-26T18:04:31.858Z,81.12
2023-03-26T18:07:01.350Z,80.43
2023-03-26T18:10:00.302Z,80.41
2023-03-26T18:12:40.770Z,79.86
2023-03-26T18:15:37.768Z,79.65
2023-03-26T18:18:26.377Z,79.35
2023-03-26T18:20:55.018Z,79.98
2023-03-26T18:23:49.903Z,80.19
2023-03-26T18:26:21.408Z,79.07
2023-03-26T18:29:09.350Z,79.72
2023-03-26T18:31:38.561Z,77.68
2023-03-26T18:34:16.937Z,77.05
2023-03-26T18:36:43.320Z,76.90
2023-03-26T18:39:13.314Z,76.79
2023-03-26T18:41:44.248Z,74.30
2023-03-26T18:44:15.618Z,74.59
2023-03-26T18:46:47.903Z,73.56
2023-03-26T18:49:17.134Z,74.07
2023-03-26T18:51:56.193Z,72.61
2023-03-26T18:54:24.060Z,72.96
2023-03-26T18:56:52.358Z,72.45
2023-03-26T18:59:27.807Z,72.00
2023-03-26T19:01:59.833Z,72.36
2023-03-26T19:04:30.898Z,71.80
2023-03-26T19:06:57.761Z,71.35
2023-03-26T19:09:31.704Z,71.36
2023-03-26T19:12:18.240Z,70.16
2023-03-26T19:15:04.058Z,70.94
2023-03-26T19:17:36.408Z,69.79
2023-03-26T19:20:09.720Z,69.40
2023-03-26T19:22:36.961Z,70.87
2023-03-26T19:25:12.565Z,70.23
2023-03-26T19:27:39.261Z,69.72
2023-03-26T19:30:07.508Z,69.41
2023-03-26T19:32:37.791Z,70.20
2023-03-26T19:35:22.821Z,69.65
2023-03-26T19:37:51.653Z,69.33
2023-03-26T19:40:22.201Z,69.34
2023-03-26T19:42:50.563Z,68.99
2023-03-26T19:45:26.933Z,67.93
2023-03-26T19:48:03.547Z,68.07
2023-03-26T19:50:45.389Z,67.51
2023-03-26T19:53:21.739Z,67.32
2023-03-26T19:56:05.258Z,67.06
2023-03-26T19:58:34.078Z,66.94
2023-03-26T20:01:00.557Z,67.14
2023-03-26T20:03:36.739Z,67.49
2023-03-26T20:06:03.550Z,67.75
2023-03-26T20:08:29.941Z,67.74
2023-03-26T20:10:57.390Z,67.67
2023-03-26T20:13:23.953Z,68.28
2023-03-26T20:16:04.996Z,67.87
2023-03-26T20:18:35.376Z,66.91
2023-03-26T20:21:02.091Z,65.49
2023-03-26T20:23:28.871Z,65.10
2023-03-26T20:25:55.768Z,64.15
2023-03-26T20:28:24.603Z,63.55
2023-03-26T20:30:54.299Z,63.30
2023-03-26T20:33:27.648Z,63.31
2023-03-26T20:36:00.310Z,62.51
2023-03-26T20:38:39.053Z,61.99
2023-03-26T20:41:10.325Z,62.30
2023-03-26T20:43:37.372Z,61.56
2023-03-26T20:46:05.890Z,61.63
2023-03-26T20:48:32.483Z,61.51
2023-03-26T20:50:58.899Z,62.13
2023-03-26T20:53:25.441Z,60.72
2023-03-26T20:55:52.132Z,60.91
2023-03-26T20:58:31.506Z,60.71
2023-03-26T21:01:02.498Z,60.70
2023-03-26T21:03:29.565Z,60.44
2023-03-26T21:05:59.863Z,60.99
2023-03-26T21:08:30.154Z,60.86
2023-03-26T21:10:58.639Z,60.48
2023-03-26T21:13:38.941Z,59.78
2023-03-26T21:16:06.459Z,59.56
2023-03-26T21:18:33.395Z,59.49
2023-03-26T21:21:20.089Z,59.88
2023-03-26T21:23:59.203Z,59.14
2023-03-26T21:26:34.596Z,59.12
2023-03-26T21:29:08.660Z,60.09
2023-03-26T21:31:38.069Z,59.27
2023-03-26T21:34:05.540Z,58.89
2023-03-26T21:36:33.363Z,58.95
2023-03-26T21:39:00.037Z,58.59
2023-03-26T21:42:04.780Z,59.88
2023-03-26T21:44:33.077Z,59.04
2023-03-26T21:46:59.893Z,59.68
2023-03-26T21:49:26.705Z,59.90
2023-03-26T21:51:53.288Z,60.27
2023-03-26T21:54:31.869Z,59.26
2023-03-26T21:57:09.693Z,60.51
2023-03-26T21:59:59.963Z,59.96
2023-03-26T22:02:44.031Z,60.79
2023-03-26T22:05:18.007Z,60.87
2023-03-26T22:07:56.987Z,60.58
2023-03-26T22:10:23.363Z,60.63
2023-03-26T22:12:50.232Z,61.29
2023-03-26T22:15:19.120Z,60.91
2023-03-26T22:17:53.526Z,61.46
2023-03-26T22:20:24.561Z,61.34
2023-03-26T22:22:53.260Z,61.76
2023-03-26T22:25:21.010Z,61.86
2023-03-26T22:27:48.542Z,61.74
2023-03-26T22:30:15.762Z,61.44
2023-03-26T22:32:43.364Z,61.17
2023-03-26T22:35:10.414Z,61.63
2023-03-26T22:37:37.720Z,61.47
2023-03-26T22:40:08.322Z,61.71
2023-03-26T22:42:35.736Z,62.22
2023-03-26T22:45:02.623Z,62.66
2023-03-26T22:47:30.493Z,62.77
2023-03-26T22:49:57.209Z,62.76
2023-03-26T22:52:23.634Z,63.14
2023-03-26T22:54:50.018Z,63.14
2023-03-26T22:57:16.458Z,63.25
2023-03-26T22:59:43.028Z,63.36
2023-03-26T23:02:10.801Z,63.58
2023-03-26T23:04:37.568Z,63.61
2023-03-26T23:07:05.211Z,63.75
2023-03-26T23:09:31.629Z,64.06
2023-03-26T23:11:58.353Z,64.07
2023-03-26T23:14:24.866Z,63.88
2023-03-26T23:16:51.722Z,63.65
2023-03-26T23:19:18.093Z,64.00
2023-03-26T23:21:44.456Z,64.43
2023-03-26T23:24:10.891Z,64.89
2023-03-26T23:26:49.655Z,65.08
2023-03-26T23:29:17.445Z,64.80
2023-03-26T23:31:43.874Z,65.31
2023-03-26T23:34:10.929Z,65.66
2023-03-26T23:36:37.368Z,65.64
2023-03-26T23:39:04.661Z,65.74
2023-03-26T23:41:31.304Z,65.73
2023-03-26T23:43:57.760Z,65.99
2023-03-26T23:46:30.196Z,66.41
2023-03-26T23:48:59.563Z,65.96
2023-03-26T23:51:26.102Z,66.10
2023-03-26T23:53:53.349Z,66.39
2023-03-26T23:56:20.226Z,66.07
2023-03-26T23:58:47.619Z,65.67
